createdAt,value
2023-04-21T00:00:59.617Z,99174.50
2023-04-21T00:03:28.188Z,99171.95
2023-04-21T00:05:58.174Z,99173.31
2023-04-21T00:08:27.999Z,99174.31
2023-04-21T00:10:54.970Z,99173.27
2023-04-21T00:13:22.421Z,99168.98
2023-04-21T00:15:49.585Z,99168.64
2023-04-21T00:18:17.483Z,99168.60
2023-04-21T00:20:44.480Z,99167.06
2023-04-21T00:23:11.211Z,99168.25
2023-04-21T00:25:37.928Z,99165.85
2023-04-21T00:28:05.055Z,99163.12
2023-04-21T00:30:31.953Z,99164.14
2023-04-21T00:32:58.790Z,99165.35
2023-04-21T00:35:25.981Z,99162.80
2023-04-21T00:37:54.305Z,99166.06
2023-04-21T00:40:21.142Z,99152.55
2023-04-21T00:42:48.358Z,99159.05
2023-04-21T00:45:15.380Z,99161.30
2023-04-21T00:47:42.482Z,99163.16
2023-04-21T00:50:11.334Z,99162.32
2023-04-21T00:52:41.648Z,99161.80
2023-04-21T00:55:08.832Z,99164.90
2023-04-21T00:57:36.404Z,99159.42
2023-04-21T01:00:05.602Z,99157.37
2023-04-21T01:02:34.730Z,99155.31
2023-04-21T01:05:01.837Z,99157.88
2023-04-21T01:07:29.033Z,99154.62
2023-04-21T01:09:56.718Z,99155.80
2023-04-21T01:12:23.544Z,99162.45
2023-04-21T01:14:53.628Z,99158.66
2023-04-21T01:17:20.932Z,99156.60
2023-04-21T01:19:47.725Z,99156.92
2023-04-21T01:22:16.314Z,99157.77
2023-04-21T01:24:43.953Z,99155.55
2023-04-21T01:27:16.085Z,99153.82
2023-04-21T01:29:43.330Z,99147.80
2023-04-21T01:32:12.688Z,99149.86
2023-04-21T01:34:41.733Z,99148.13
2023-04-21T01:37:11.390Z,99146.27
2023-04-21T01:39:39.904Z,99144.39
2023-04-21T01:42:06.979Z,99144.70
2023-04-21T01:44:33.917Z,99145.21
2023-04-21T01:47:01.145Z,99141.10
2023-04-21T01:49:28.172Z,99136.98
2023-04-21T01:51:55.389Z,99139.88
2023-04-21T01:54:22.217Z,99138.34
2023-04-21T01:56:49.009Z,99137.83
2023-04-21T01:59:16.314Z,99135.92
2023-04-21T02:01:43.462Z,99133.00
2023-04-21T02:04:10.668Z,99132.14
2023-04-21T02:06:37.767Z,99128.70
2023-04-21T02:09:06.326Z,99121.35
2023-04-21T02:11:33.519Z,99121.84
2023-04-21T02:14:00.496Z,99120.97
2023-04-21T02:16:27.380Z,99118.92
2023-04-21T02:18:57.215Z,99115.86
2023-04-21T02:21:24.235Z,99115.70
2023-04-21T02:23:51.402Z,99109.71
2023-04-21T02:26:18.607Z,99109.55
2023-04-21T02:28:45.578Z,99112.98
2023-04-21T02:31:16.849Z,99111.44
2023-04-21T02:33:44.558Z,99110.93
2023-04-21T02:36:11.705Z,99113.67
2023-04-21T02:38:38.713Z,99109.06
2023-04-21T02:41:05.674Z,99110.11
2023-04-21T02:43:34.091Z,99105.83
2023-04-21T02:46:06.199Z,99105.67
2023-04-21T02:48:34.968Z,99104.98
2023-04-21T02:51:01.782Z,99105.33
2023-04-21T02:53:28.626Z,99107.03
2023-04-21T02:55:55.807Z,99105.84
2023-04-21T02:58:23.590Z,99104.65
2023-04-21T03:00:50.949Z,99098.32
2023-04-21T03:03:17.940Z,99098.48
2023-04-21T03:05:45.100Z,99094.22
2023-04-21T03:08:12.350Z,99095.74
2023-04-21T03:10:39.413Z,99095.58
2023-04-21T03:13:06.306Z,99095.07
2023-04-21T03:15:33.884Z,99096.77
2023-04-21T03:18:02.294Z,99095.89
2023-04-21T03:20:29.974Z,99098.60
2023-04-21T03:22:57.265Z,99097.71
2023-04-21T03:25:24.144Z,99102.28
2023-04-21T03:27:51.013Z,99102.42
2023-04-21T03:30:18.188Z,99106.16
2023-04-21T03:32:45.291Z,99109.91
2023-04-21T03:35:12.147Z,99109.23
2023-04-21T03:37:39.347Z,99107.85
2023-04-21T03:40:09.562Z,99102.73
2023-04-21T03:42:36.751Z,99101.17
2023-04-21T03:45:04.752Z,99103.55
2023-04-21T03:47:33.246Z,99102.73
2023-04-21T03:50:00.222Z,99098.98
2023-04-21T03:52:26.962Z,99091.98
2023-04-21T03:54:53.926Z,99094.04
2023-04-21T03:57:20.850Z,99091.30
2023-04-21T03:59:47.808Z,99088.40
2023-04-21T04:02:14.886Z,99087.02
2023-04-21T04:04:42.168Z,99087.73
2023-04-21T04:07:09.512Z,99088.06
2023-04-21T04:09:36.419Z,99086.22
2023-04-21T04:12:03.702Z,99082.98
2023-04-21T04:14:31.567Z,99080.27
2023-04-21T04:16:58.865Z,99078.23
2023-04-21T04:19:32.357Z,99081.15
2023-04-21T04:22:00.637Z,99080.47
2023-04-21T04:24:27.864Z,99083.40
2023-04-21T04:26:54.753Z,99083.92
2023-04-21T04:29:22.017Z,99086.00
2023-04-21T04:31:52.348Z,99088.44
2023-04-21T04:34:22.787Z,99089.34
2023-04-21T04:36:50.722Z,99092.11
2023-04-21T04:39:17.660Z,99091.96
2023-04-21T04:41:44.752Z,99093.21
2023-04-21T04:44:11.552Z,99097.20
2023-04-21T04:46:38.961Z,99097.59
2023-04-21T04:49:06.009Z,99095.27
2023-04-21T04:51:37.494Z,99097.06
2023-04-21T04:54:04.570Z,99099.90
2023-04-21T04:56:32.519Z,99099.98
2023-04-21T04:58:59.415Z,99101.77
2023-04-21T05:01:30.153Z,99103.73
2023-04-21T05:03:57.220Z,99103.66
2023-04-21T05:06:24.263Z,99103.73
2023-04-21T05:08:51.223Z,99106.19
2023-04-21T05:11:18.349Z,99105.74
2023-04-21T05:13:45.240Z,99109.90
2023-04-21T05:16:12.393Z,99098.10
2023-04-21T05:18:40.095Z,99102.23
2023-04-21T05:21:07.182Z,99106.36
2023-04-21T05:23:34.586Z,99104.68
2023-04-21T05:26:04.133Z,99104.54
2023-04-21T05:28:32.096Z,99108.16
2023-04-21T05:30:59.036Z,99111.11
2023-04-21T05:33:26.152Z,99108.73
2023-04-21T05:35:55.697Z,99110.28
2023-04-21T05:38:22.660Z,99110.64
2023-04-21T05:40:55.548Z,99111.86
2023-04-21T05:43:22.564Z,99105.36
2023-04-21T05:45:49.366Z,99105.91
2023-04-21T05:48:16.080Z,99103.34
2023-04-21T05:50:43.163Z,99104.56
2023-04-21T05:53:10.102Z,99106.13
2023-04-21T05:55:37.067Z,99106.84
2023-04-21T05:58:04.916Z,99103.57
2023-04-21T06:00:33.044Z,99106.84
2023-04-21T06:03:00.387Z,99103.77
2023-04-21T06:05:27.468Z,99102.75
2023-04-21T06:07:54.743Z,99102.08
2023-04-21T06:10:21.870Z,99099.33
2023-04-21T06:12:48.848Z,99099.14
2023-04-21T06:15:15.801Z,99097.91
2023-04-21T06:17:43.105Z,99096.34
2023-04-21T06:20:11.217Z,99095.06
2023-04-21T06:22:38.474Z,99087.08
2023-04-21T06:25:05.903Z,99087.47
2023-04-21T06:27:33.503Z,99083.20
2023-04-21T06:30:00.667Z,99082.72
2023-04-21T06:32:27.734Z,99086.70
2023-04-21T06:34:54.957Z,99087.75
2023-04-21T06:37:21.803Z,99089.50
2023-04-21T06:39:48.676Z,99085.75
2023-04-21T06:42:15.516Z,99083.58
2023-04-21T06:44:42.677Z,99085.20
2023-04-21T06:47:09.675Z,99082.98
2023-04-21T06:49:36.994Z,99080.90
2023-04-21T06:52:04.249Z,99079.95
2023-04-21T06:54:31.302Z,99083.59
2023-04-21T06:56:58.246Z,99086.75
2023-04-21T06:59:25.442Z,99083.59
2023-04-21T07:01:52.609Z,99085.58
2023-04-21T07:04:19.734Z,99089.14
2023-04-21T07:06:49.009Z,99092.70
2023-04-21T07:09:15.965Z,99093.92
2023-04-21T07:11:43.245Z,99091.20
2023-04-21T07:14:10.469Z,99088.30
2023-04-21T07:16:38.014Z,99087.25
2023-04-21T07:19:04.964Z,99097.23
2023-04-21T07:21:35.634Z,99093.41
2023-04-21T07:24:02.926Z,99088.65
2023-04-21T07:26:30.343Z,99085.20
2023-04-21T07:28:57.994Z,99089.08
2023-04-21T07:31:24.831Z,99090.89
2023-04-21T07:33:51.864Z,99084.66
2023-04-21T07:36:18.782Z,99089.41
2023-04-21T07:38:45.838Z,99095.95
2023-04-21T07:41:12.889Z,99096.87
2023-04-21T07:43:40.630Z,99099.23
2023-04-21T07:46:07.629Z,99099.73
2023-04-21T07:48:34.658Z,99096.60
2023-04-21T07:51:02.914Z,99094.95
2023-04-21T07:53:30.402Z,99094.86
2023-04-21T07:55:57.728Z,99099.19
2023-04-21T07:58:24.689Z,99101.08
2023-04-21T08:00:51.616Z,99100.71
2023-04-21T08:03:18.786Z,99098.58
2023-04-21T08:05:47.016Z,99099.22
2023-04-21T08:08:19.646Z,99097.58
2023-04-21T08:10:46.535Z,99100.16
2023-04-21T08:13:13.390Z,99095.36
2023-04-21T08:15:40.283Z,99106.30
2023-04-21T08:18:08.145Z,99102.77
2023-04-21T08:20:35.204Z,99095.70
2023-04-21T08:23:02.341Z,99100.83
2023-04-21T08:25:29.336Z,99098.09
2023-04-21T08:27:56.202Z,99099.61
2023-04-21T08:30:23.222Z,99101.56
2023-04-21T08:32:50.515Z,99102.39
2023-04-21T08:35:17.387Z,99100.88
2023-04-21T08:37:45.100Z,99102.81
2023-04-21T08:40:12.066Z,99103.04
2023-04-21T08:42:39.023Z,99103.92
2023-04-21T08:45:06.515Z,99102.83
2023-04-21T08:47:34.059Z,99105.16
2023-04-21T08:50:01.025Z,99109.02
2023-04-21T08:52:27.960Z,99108.92
2023-04-21T08:54:55.177Z,99112.16
2023-04-21T08:57:22.322Z,99109.86
2023-04-21T08:59:49.140Z,99106.02
2023-04-21T09:02:17.291Z,99103.05
2023-04-21T09:07:33.448Z,99106.33
2023-04-21T09:10:00.465Z,99100.57
2023-04-21T09:12:31.012Z,99099.61
2023-04-21T09:14:58.115Z,99102.87
2023-04-21T09:17:33.152Z,99111.55
2023-04-21T09:20:15.850Z,99116.08
2023-04-21T09:22:42.996Z,99115.73
2023-04-21T09:25:10.424Z,99113.60
2023-04-21T09:27:37.816Z,99120.38
2023-04-21T09:30:08.167Z,99122.19
2023-04-21T09:32:37.603Z,99119.08
2023-04-21T09:35:09.169Z,99122.80
2023-04-21T09:37:37.605Z,99125.57
2023-04-21T09:40:05.715Z,99131.56
2023-04-21T09:42:38.188Z,99127.23
2023-04-21T09:45:28.332Z,99134.58
2023-04-21T09:47:57.961Z,99138.64
2023-04-21T09:50:51.266Z,99140.24
2023-04-21T09:53:14.734Z,99144.27
2023-04-21T09:55:41.651Z,99136.39
2023-04-21T09:58:09.206Z,99141.81
2023-04-21T10:00:38.771Z,99143.38
2023-04-21T10:03:11.539Z,99142.48
2023-04-21T10:05:41.891Z,99150.90
2023-04-21T10:08:11.913Z,99151.33
2023-04-21T10:10:40.837Z,99148.38
2023-04-21T10:13:15.595Z,99144.67
2023-04-21T10:15:42.605Z,99145.95
2023-04-21T10:18:21.158Z,99149.98
2023-04-21T10:21:18.887Z,99159.90
2023-04-21T10:23:47.461Z,99163.54
2023-04-21T10:26:14.918Z,99167.73
2023-04-21T10:28:51.932Z,99172.96
2023-04-21T10:31:38.643Z,99172.88
2023-04-21T10:34:05.638Z,99175.55
2023-04-21T10:36:48.922Z,99178.02
2023-04-21T10:39:30.902Z,99181.68
2023-04-21T10:41:58.575Z,99183.97
2023-04-21T10:44:28.035Z,99186.03
2023-04-21T10:46:55.939Z,99182.62
2023-04-21T10:49:29.957Z,99173.16
2023-04-21T10:52:02.842Z,99167.29
2023-04-21T10:54:45.016Z,99162.91
2023-04-21T10:57:18.065Z,99162.81
2023-04-21T10:59:45.429Z,99163.78
2023-04-21T11:02:14.102Z,99160.98
2023-04-21T11:04:44.955Z,99161.65
2023-04-21T11:07:13.075Z,99167.13
2023-04-21T11:09:40.712Z,99172.85
2023-04-21T11:12:11.253Z,99176.71
2023-04-21T11:14:39.206Z,99180.70
2023-04-21T11:17:11.176Z,99180.34
2023-04-21T11:19:39.930Z,99182.41
2023-04-21T11:22:06.789Z,99178.64
2023-04-21T11:24:33.526Z,99172.94
2023-04-21T11:27:01.568Z,99172.55
2023-04-21T11:29:31.401Z,99165.95
2023-04-21T11:31:58.683Z,99165.33
2023-04-21T11:34:25.865Z,99161.80
2023-04-21T11:36:52.650Z,99158.48
2023-04-21T11:39:21.764Z,99152.39
2023-04-21T11:41:50.095Z,99147.02
2023-04-21T11:44:34.129Z,99145.05
2023-04-21T11:47:11.438Z,99143.46
2023-04-21T11:49:46.511Z,99139.81
2023-04-21T11:52:27.499Z,99133.91
2023-04-21T11:54:56.589Z,99132.48
2023-04-21T11:57:24.907Z,99126.92
2023-04-21T11:59:52.352Z,99127.57
2023-04-21T12:02:29.857Z,99126.33
2023-04-21T12:04:58.786Z,99123.54
2023-04-21T12:07:26.264Z,99124.24
2023-04-21T12:09:53.260Z,99120.77
2023-04-21T12:12:21.656Z,99115.35
2023-04-21T12:14:49.512Z,99113.23
2023-04-21T12:17:16.144Z,99109.44
2023-04-21T12:19:43.051Z,99108.29
2023-04-21T12:22:14.788Z,99103.80
2023-04-21T12:24:42.207Z,99104.29
2023-04-21T12:27:09.465Z,99099.61
2023-04-21T12:29:37.906Z,99098.36
2023-04-21T12:32:05.651Z,99096.30
2023-04-21T12:34:33.683Z,99090.95
2023-04-21T12:37:00.663Z,99089.11
2023-04-21T12:39:28.517Z,99090.95
2023-04-21T12:41:57.116Z,99091.95
2023-04-21T12:44:24.273Z,99091.91
2023-04-21T12:46:52.071Z,99083.76
2023-04-21T12:49:19.120Z,99084.45
2023-04-21T12:51:46.651Z,99084.41
2023-04-21T12:54:13.906Z,99083.69
2023-04-21T12:56:41.796Z,99086.95
2023-04-21T12:59:09.887Z,99087.48
2023-04-21T13:01:38.188Z,99087.67
2023-04-21T13:04:05.795Z,99085.54
2023-04-21T13:06:35.449Z,99085.48
2023-04-21T13:09:02.565Z,99091.13
2023-04-21T13:11:29.627Z,99090.41
2023-04-21T13:13:57.639Z,99091.28
2023-04-21T13:16:24.575Z,99093.29
2023-04-21T13:18:51.780Z,99091.52
2023-04-21T13:21:18.812Z,99090.14
2023-04-21T13:23:45.802Z,99086.69
2023-04-21T13:26:12.803Z,99081.58
2023-04-21T13:28:40.071Z,99088.19
2023-04-21T13:31:07.221Z,99084.04
2023-04-21T13:33:34.696Z,99081.32
2023-04-21T13:36:02.834Z,99082.66
2023-04-21T13:38:29.971Z,99070.17
2023-04-21T13:40:57.089Z,99070.19
2023-04-21T13:43:24.197Z,99070.65
2023-04-21T13:45:51.609Z,99072.03
2023-04-21T13:48:21.645Z,99065.77
2023-04-21T13:50:48.504Z,99069.81
2023-04-21T13:53:15.663Z,99065.41
2023-04-21T13:55:46.163Z,99071.08
2023-04-21T13:58:17.408Z,99065.73
2023-04-21T14:00:44.429Z,99060.27
2023-04-21T14:03:12.099Z,99060.85
2023-04-21T14:05:39.164Z,99065.36
2023-04-21T14:08:06.251Z,99059.48
2023-04-21T14:10:33.409Z,99060.33
2023-04-21T14:13:01.026Z,99059.28
2023-04-21T14:15:27.938Z,99058.70
2023-04-21T14:17:55.985Z,99057.48
2023-04-21T14:20:22.892Z,99058.06
2023-04-21T14:22:49.993Z,99068.52
2023-04-21T14:25:17.030Z,99067.37
2023-04-21T14:27:43.851Z,99070.13
2023-04-21T14:30:11.230Z,99068.20
2023-04-21T14:32:44.049Z,99068.02
2023-04-21T14:35:14.040Z,99063.77
2023-04-21T14:37:41.035Z,99064.79
2023-04-21T14:40:08.725Z,99069.59
2023-04-21T14:42:36.071Z,99064.41
2023-04-21T14:45:03.225Z,99060.92
2023-04-21T14:47:30.544Z,99058.71
2023-04-21T14:49:57.317Z,99060.63
2023-04-21T14:52:25.208Z,99062.27
2023-04-21T14:54:52.180Z,99059.10
2023-04-21T14:57:21.440Z,99056.77
2023-04-21T14:59:50.053Z,99055.76
2023-04-21T15:02:17.092Z,99051.06
2023-04-21T15:04:44.249Z,99050.70
2023-04-21T15:07:11.612Z,99050.02
2023-04-21T15:09:45.153Z,99057.47
2023-04-21T15:12:12.954Z,99059.40
2023-04-21T15:14:40.125Z,99058.36
2023-04-21T15:17:07.310Z,99058.23
2023-04-21T15:19:34.669Z,99055.88
2023-04-21T15:22:04.133Z,99051.80
2023-04-21T15:24:31.092Z,99045.32
2023-04-21T15:26:58.178Z,99044.86
2023-04-21T15:29:25.058Z,99046.77
2023-04-21T15:31:52.127Z,99043.69
2023-04-21T15:34:19.114Z,99050.23
2023-04-21T15:36:46.119Z,99055.46
2023-04-21T15:39:15.898Z,99067.98
2023-04-21T15:41:42.744Z,99074.39
2023-04-21T15:44:09.835Z,99078.91
2023-04-21T15:46:37.055Z,99082.57
2023-04-21T15:49:04.324Z,99085.05
2023-04-21T15:51:35.144Z,99096.11
2023-04-21T15:54:02.080Z,99091.98
2023-04-21T15:56:29.702Z,99096.46
2023-04-21T15:58:56.548Z,99101.30
2023-04-21T16:01:23.642Z,99101.30
2023-04-21T16:03:50.969Z,99086.48
2023-04-21T16:06:18.056Z,99104.25
2023-04-21T16:08:45.208Z,99085.51
2023-04-21T16:11:11.963Z,99062.69
2023-04-21T16:13:40.174Z,99052.12
2023-04-21T16:16:08.287Z,99043.73
2023-04-21T16:18:35.715Z,99045.98
2023-04-21T16:21:02.822Z,99043.58
2023-04-21T16:23:29.801Z,99040.33
2023-04-21T16:25:56.647Z,99038.80
2023-04-21T16:28:23.600Z,99034.66
2023-04-21T16:30:50.711Z,99031.90
2023-04-21T16:33:17.964Z,99033.62
2023-04-21T16:35:44.916Z,99040.33
2023-04-21T16:38:11.695Z,99037.56
2023-04-21T16:40:38.725Z,99037.05
2023-04-21T16:43:06.538Z,99035.86
2023-04-21T16:45:35.126Z,99035.22
2023-04-21T16:48:03.160Z,99036.65
2023-04-21T16:50:35.785Z,99035.30
2023-04-21T16:53:03.226Z,99037.89
2023-04-21T16:55:31.029Z,99035.65
2023-04-21T16:57:58.874Z,99039.42
2023-04-21T17:00:26.463Z,99044.60
2023-04-21T17:02:54.146Z,99051.33
2023-04-21T17:05:24.733Z,99050.98
2023-04-21T17:07:51.937Z,99057.20
2023-04-21T17:10:19.029Z,99062.27
2023-04-21T17:12:46.390Z,99066.61
2023-04-21T17:15:13.428Z,99066.30
2023-04-21T17:17:42.305Z,99065.98
2023-04-21T17:20:10.894Z,99070.84
2023-04-21T17:22:39.602Z,99077.05
2023-04-21T17:25:06.847Z,99082.39
2023-04-21T17:27:37.322Z,99087.39
2023-04-21T17:30:05.094Z,99089.12
2023-04-21T17:32:33.777Z,99099.11
2023-04-21T17:35:02.358Z,99102.90
2023-04-21T17:37:29.774Z,99106.52
2023-04-21T17:39:57.390Z,99112.17
2023-04-21T17:42:26.025Z,99111.00
2023-04-21T17:44:52.872Z,99116.14
2023-04-21T17:47:19.622Z,99123.02
2023-04-21T17:49:46.343Z,99123.71
2023-04-21T17:52:14.801Z,99117.70
2023-04-21T17:54:45.604Z,99116.67
2023-04-21T17:57:12.843Z,99117.01
2023-04-21T17:59:40.185Z,99113.58
2023-04-21T18:02:07.909Z,99112.89
2023-04-21T18:04:36.028Z,99107.91
2023-04-21T18:07:03.178Z,99107.04
2023-04-21T18:09:31.699Z,99111.00
2023-04-21T18:11:59.004Z,99110.14
2023-04-21T18:14:26.472Z,99107.05
2023-04-21T18:16:54.220Z,99106.55
2023-04-21T18:19:21.071Z,99105.52
2023-04-21T18:21:47.812Z,99107.91
2023-04-21T18:24:15.001Z,99102.60
2023-04-21T18:26:42.344Z,99104.66
2023-04-21T18:29:08.995Z,99098.64
2023-04-21T18:31:35.930Z,99098.45
2023-04-21T18:34:02.748Z,99094.16
2023-04-21T18:36:32.318Z,99089.85
2023-04-21T18:38:59.817Z,99086.43
2023-04-21T18:41:26.846Z,99082.45
2023-04-21T18:43:53.794Z,99080.23
2023-04-21T18:46:20.651Z,99074.41
2023-04-21T18:48:47.383Z,99067.89
2023-04-21T18:51:14.365Z,99068.94
2023-04-21T18:53:42.553Z,99069.11
2023-04-21T18:56:09.199Z,99068.08
2023-04-21T18:58:35.919Z,99066.20
2023-04-21T19:01:02.723Z,99066.02
2023-04-21T19:03:32.363Z,99066.54
2023-04-21T19:05:59.297Z,99066.02
2023-04-21T19:08:38.748Z,99066.36
2023-04-21T19:11:10.780Z,99066.36
2023-04-21T19:13:38.023Z,99062.42
2023-04-21T19:16:05.702Z,99064.13
2023-04-21T19:18:32.853Z,99058.30
2023-04-21T19:20:59.695Z,99060.02
2023-04-21T19:23:26.465Z,99058.46
2023-04-21T19:25:56.798Z,99058.98
2023-04-21T19:28:23.538Z,99055.71
2023-04-21T19:30:50.190Z,99052.27
2023-04-21T19:33:17.421Z,99046.61
2023-04-21T19:35:44.297Z,99043.70
2023-04-21T19:38:11.303Z,99036.48
2023-04-21T19:40:38.163Z,99040.79
2023-04-21T19:43:08.023Z,99040.27
2023-04-21T19:45:35.472Z,99035.63
2023-04-21T19:48:02.299Z,99035.80
2023-04-21T19:50:30.760Z,99029.10
2023-04-21T19:52:57.491Z,99034.08
2023-04-21T19:55:24.653Z,99030.13
2023-04-21T19:57:51.959Z,99034.27
2023-04-21T20:00:18.939Z,99028.25
2023-04-21T20:02:45.867Z,99031.00
2023-04-21T20:05:12.915Z,99031.16
2023-04-21T20:07:40.038Z,99031.35
2023-04-21T20:10:07.321Z,99033.23
2023-04-21T20:12:34.280Z,99032.90
2023-04-21T20:15:01.322Z,99030.83
2023-04-21T20:17:28.517Z,99031.16
2023-04-21T20:19:55.384Z,99032.02
2023-04-21T20:22:22.206Z,99035.11
2023-04-21T20:24:51.421Z,99038.73
2023-04-21T20:27:18.115Z,99035.11
2023-04-21T20:29:46.119Z,99036.48
2023-04-21T20:32:13.376Z,99033.55
2023-04-21T20:34:40.821Z,99039.22
2023-04-21T20:37:09.583Z,99040.60
2023-04-21T20:39:37.928Z,99037.85
2023-04-21T20:42:13.126Z,99037.86
2023-04-21T20:44:41.723Z,99036.13
2023-04-21T20:47:08.986Z,99031.33
2023-04-21T20:49:36.258Z,99030.63
2023-04-21T20:52:03.364Z,99028.73
2023-04-21T20:54:30.502Z,99024.80
2023-04-21T20:56:57.268Z,99025.48
2023-04-21T20:59:24.028Z,99028.05
2023-04-21T21:01:50.937Z,99023.07
2023-04-21T21:04:18.170Z,99019.81
2023-04-21T21:06:45.184Z,99019.98
2023-04-21T21:09:12.258Z,99017.23
2023-04-21T21:11:39.041Z,99015.86
2023-04-21T21:14:05.770Z,99017.05
2023-04-21T21:16:32.541Z,99014.30
2023-04-21T21:18:59.258Z,99011.91
2023-04-21T21:21:26.563Z,99005.73
2023-04-21T21:23:53.452Z,99004.54
2023-04-21T21:26:20.304Z,99001.77
2023-04-21T21:28:47.091Z,99001.95
2023-04-21T21:31:16.239Z,99001.60
2023-04-21T21:33:43.201Z,99001.27
2023-04-21T21:36:10.029Z,99007.94
2023-04-21T21:38:37.050Z,99003.48
2023-04-21T21:41:05.128Z,99005.35
2023-04-21T21:43:32.631Z,99007.75
2023-04-21T21:45:59.502Z,99013.92
2023-04-21T21:48:26.354Z,99018.38
2023-04-21T21:50:53.193Z,99014.10
2023-04-21T21:53:20.273Z,99017.52
2023-04-21T21:55:47.356Z,99012.55
2023-04-21T21:58:14.644Z,99015.98
2023-04-21T22:00:42.117Z,99016.31
2023-04-21T22:03:08.897Z,99013.73
2023-04-21T22:05:35.789Z,99012.36
2023-04-21T22:08:03.523Z,99012.17
2023-04-21T22:10:30.509Z,99012.86
2023-04-21T22:12:57.312Z,99011.30
2023-04-21T22:15:24.045Z,99010.10
2023-04-21T22:17:51.151Z,99009.75
2023-04-21T22:20:18.670Z,99007.16
2023-04-21T22:22:48.347Z,99004.59
2023-04-21T22:25:15.201Z,99003.55
2023-04-21T22:27:42.031Z,99005.39
2023-04-21T22:30:09.065Z,99001.64
2023-04-21T22:32:36.745Z,99000.77
2023-04-21T22:35:03.913Z,99005.39
2023-04-21T22:37:31.494Z,99003.84
2023-04-21T22:39:59.292Z,99005.55
2023-04-21T22:42:26.302Z,99005.03
2023-04-21T22:44:53.181Z,99006.05
2023-04-21T22:47:20.115Z,99002.95
2023-04-21T22:49:47.135Z,99000.88
2023-04-21T22:52:13.901Z,99004.98
2023-04-21T22:54:43.648Z,99003.61
2023-04-21T22:57:10.750Z,99003.77
2023-04-21T22:59:37.901Z,99003.58
2023-04-21T23:02:05.241Z,99002.55
2023-04-21T23:04:34.600Z,99002.70
2023-04-21T23:07:01.396Z,99002.02
2023-04-21T23:09:28.656Z,98999.94
2023-04-21T23:11:55.664Z,98998.39
2023-04-21T23:14:22.812Z,98989.98
2023-04-21T23:16:49.650Z,98991.70
2023-04-21T23:19:16.506Z,98989.98
2023-04-21T23:21:43.894Z,98991.84
2023-04-21T23:24:10.572Z,98986.37
2023-04-21T23:26:38.316Z,98990.82
2023-04-21T23:29:05.430Z,98989.27
2023-04-21T23:31:32.690Z,98988.56
2023-04-21T23:34:00.129Z,98985.30
2023-04-21T23:36:27.103Z,98988.55
2023-04-21T23:38:54.043Z,98985.28
2023-04-21T23:41:20.956Z,98986.80
2023-04-21T23:43:47.886Z,98989.55
2023-04-21T23:46:15.011Z,98986.61
2023-04-21T23:48:42.107Z,98987.12
2023-04-21T23:51:08.830Z,98986.23
2023-04-21T23:53:36.327Z,98990.98
2023-04-21T23:56:05.888Z,98989.58
2023-04-21T23:58:32.832Z,98988.67
